Time;durP1;ratioP1;P1;durP2;ratioP2;P2;SDS_P1;SDS_P2;PMS_P1;PMS_P2;Temp;Humidity;BMP_temperature;BMP_pressure;BME280_temperature;BME280_humidity;BME280_pressure;Samples;Min_cycle;Max_cycle;Signal;HPM_P1;HPM_P2
2021/08/11 15:14:17;;;;;;;0.10;0.10;;;;;;;25.61;57.11;99784.66;5104604;28;20913;-65
2021/08/11 15:16:44;;;;;;;0.30;0.30;;;;;;;25.60;56.84;99788.34;5128814;27;20650;-65
2021/08/11 15:19:09;;;;;;;0.20;0.20;;;;;;;25.54;56.94;99770.38;5130264;27;20043;-67
2021/08/11 15:21:35;;;;;;;0.10;0.10;;;;;;;25.59;57.02;99789.34;5112890;27;20423;-67
2021/08/11 15:24:02;;;;;;;0.10;0.10;;;;;;;25.61;57.28;99781.16;5131314;27;20086;-62
2021/08/11 15:26:48;;;;;;;0.10;0.10;;;;;;;25.61;57.54;99787.34;5143796;27;20046;-62
2021/08/11 15:29:33;;;;;;;0.10;0.10;;;;;;;25.60;57.32;99791.03;5151819;27;20097;-64
2021/08/11 15:32:19;;;;;;;0.20;0.20;;;;;;;25.51;57.61;99789.44;5151749;27;20050;-62
2021/08/11 15:35:06;;;;;;;0.30;0.30;;;;;;;25.54;57.58;99786.41;5136310;27;20057;-63
2021/08/11 15:37:51;;;;;;;0.10;0.10;;;;;;;25.49;57.71;99787.94;5151370;27;20046;-66
2021/08/11 15:40:37;;;;;;;0.10;0.10;;;;;;;25.44;57.92;99769.75;5151444;27;20129;-66
2021/08/11 15:43:23;;;;;;;0.25;0.25;;;;;;;25.49;57.94;99771.91;5151659;27;20489;-65
2021/08/11 15:46:09;;;;;;;0.15;0.15;;;;;;;25.50;57.94;99774.41;5151582;27;20057;-64
2021/08/11 15:48:55;;;;;;;0.10;0.10;;;;;;;25.49;57.70;99767.34;5121517;27;20076;-63
2021/08/11 15:51:40;;;;;;;0.20;0.20;;;;;;;25.52;57.89;99779.59;5150719;27;20047;-66
2021/08/11 15:54:26;;;;;;;0.10;0.10;;;;;;;25.48;57.77;99773.72;5151339;27;20408;-65
2021/08/11 15:57:12;;;;;;;0.30;0.30;;;;;;;25.42;57.78;99769.91;5136168;27;20110;-63
2021/08/11 15:59:58;;;;;;;0.15;0.15;;;;;;;25.47;57.99;99774.75;5135770;27;20053;-62
2021/08/11 16:02:44;;;;;;;0.10;0.10;;;;;;;25.47;57.89;99774.75;5151063;27;20170;-62
2021/08/11 16:05:30;;;;;;;0.10;0.10;;;;;;;25.43;57.74;99762.75;5151419;27;20577;-63
2021/08/11 16:08:16;;;;;;;0.10;0.10;;;;;;;25.45;57.68;99757.22;5135699;27;20043;-63
2021/08/11 16:11:03;;;;;;;0.20;0.20;;;;;;;25.44;57.91;99758.22;5150900;27;20082;-63
2021/08/11 16:13:48;;;;;;;0.10;0.10;;;;;;;25.47;57.80;99771.22;5150944;27;20047;-63
2021/08/11 16:16:34;;;;;;;0.10;0.10;;;;;;;25.42;57.82;99755.75;5135803;27;20051;-63
2021/08/11 16:19:20;;;;;;;0.10;0.10;;;;;;;25.44;58.11;99752.88;5136073;27;20069;-62
2021/08/11 16:22:06;;;;;;;0.20;0.20;;;;;;;25.42;57.81;99752.25;5151297;27;20049;-62
2021/08/11 16:24:52;;;;;;;0.10;0.10;;;;;;;25.43;58.10;99749.38;5150897;27;20057;-62
2021/08/11 16:27:41;;;;;;;0.00;0.00;;;;;;;25.42;57.98;99734.38;5151030;27;20460;-62
2021/08/11 16:30:26;;;;;;;0.10;0.10;;;;;;;25.41;57.92;99743.38;5151014;27;20043;-62
2021/08/11 16:33:12;;;;;;;0.10;0.10;;;;;;;25.41;57.76;99740.72;5150965;27;20114;-62
2021/08/11 16:35:58;;;;;;;0.17;0.17;;;;;;;25.40;57.91;99749.75;5135343;27;20421;-61
2021/08/11 16:38:47;;;;;;;0.10;0.10;;;;;;;25.39;58.01;99745.41;5150876;27;20077;-62
2021/08/11 16:41:33;;;;;;;0.10;0.10;;;;;;;25.34;58.05;99740.59;5136106;27;20076;-64
2021/08/11 16:44:18;;;;;;;0.10;0.10;;;;;;;25.35;58.05;99750.31;5135527;27;20051;-62
2021/08/11 16:47:04;;;;;;;0.43;0.43;;;;;;;25.35;58.18;99754.81;5150564;27;20493;-62
2021/08/11 16:49:50;;;;;;;0.25;0.25;;;;;;;25.31;58.10;99750.81;5150684;27;20082;-62
2021/08/11 16:52:36;;;;;;;0.10;0.10;;;;;;;25.25;58.28;99749.72;5151008;27;20038;-62
2021/08/11 16:55:22;;;;;;;0.10;0.10;;;;;;;25.31;58.17;99758.84;5150958;27;20061;-62
2021/08/11 16:58:08;;;;;;;0.10;0.10;;;;;;;25.31;58.11;99750.81;5150935;27;20064;-65
2021/08/11 17:00:53;;;;;;;0.10;0.10;;;;;;;25.31;58.12;99757.00;5150954;27;20054;-62
2021/08/11 17:03:39;;;;;;;0.30;0.30;;;;;;;25.27;58.12;99742.34;5139089;27;20043;-62
2021/08/11 17:06:25;;;;;;;0.00;0.00;;;;;;;25.29;58.16;99745.66;5154644;27;20045;-61
2021/08/11 17:09:11;;;;;;;0.10;0.10;;;;;;;25.29;58.31;99744.84;5154443;27;20051;-62
2021/08/11 17:11:57;;;;;;;0.17;0.17;;;;;;;25.27;58.12;99749.53;5154123;27;20420;-62
2021/08/11 17:14:43;;;;;;;0.10;0.10;;;;;;;25.27;58.15;99753.03;5153770;27;20047;-64
2021/08/11 17:17:29;;;;;;;0.10;0.10;;;;;;;25.27;58.15;99752.19;5154442;27;20107;-63
2021/08/11 17:20:15;;;;;;;0.10;0.10;;;;;;;25.27;58.28;99760.22;5154232;27;20054;-65
2021/08/11 17:23:01;;;;;;;0.25;0.25;;;;;;;25.15;58.20;99746.47;5153976;27;20042;-64
2021/08/11 17:25:47;;;;;;;0.10;0.10;;;;;;;25.24;58.43;99755.22;5154194;27;20078;-63
2021/08/11 17:28:33;;;;;;;0.30;0.30;;;;;;;25.22;58.39;99759.94;5154281;27;20053;-63
2021/08/11 17:31:18;;;;;;;0.10;0.10;;;;;;;25.23;58.45;99761.56;5138757;27;20054;-63
2021/08/11 17:34:04;;;;;;;0.40;0.40;;;;;;;25.21;58.46;99759.09;5138534;27;20087;-64
2021/08/11 17:36:50;;;;;;;0.10;0.10;;;;;;;25.19;58.38;99749.63;5153870;27;20122;-64
2021/08/11 17:39:36;;;;;;;0.20;0.20;;;;;;;25.21;58.23;99747.56;5124340;27;20517;-62
2021/08/11 17:42:22;;;;;;;0.15;0.15;;;;;;;25.13;58.28;99735.09;5153977;27;20504;-63
2021/08/11 17:45:08;;;;;;;0.10;0.10;;;;;;;25.19;58.14;99742.44;5138289;27;20145;-63
2021/08/11 17:47:55;;;;;;;0.10;0.10;;;;;;;25.20;58.09;99745.91;5153808;27;20059;-61
2021/08/11 17:50:41;;;;;;;0.10;0.10;;;;;;;25.15;58.35;99735.78;5153902;27;20043;-65
2021/08/11 17:53:26;;;;;;;0.10;0.10;;;;;;;25.17;58.33;99733.75;5153992;27;20043;-62
2021/08/11 17:56:12;;;;;;;0.10;0.10;;;;;;;25.16;58.09;99733.94;5153694;27;20042;-61
2021/08/11 17:58:58;;;;;;;0.00;0.00;;;;;;;25.14;58.58;99736.78;5153243;27;20043;-62
2021/08/11 18:01:44;;;;;;;0.35;0.35;;;;;;;25.10;58.38;99730.13;5138133;27;20057;-62
2021/08/11 18:04:30;;;;;;;0.10;0.10;;;;;;;25.01;58.74;99725.03;5153696;27;20049;-67
2021/08/11 18:07:16;;;;;;;0.10;0.10;;;;;;;25.09;58.80;99743.69;5138287;27;20047;-63
2021/08/11 18:10:02;;;;;;;0.10;0.10;;;;;;;25.06;58.62;99749.38;5153015;27;20082;-64
2021/08/11 18:12:48;;;;;;;0.10;0.10;;;;;;;25.01;58.70;99735.72;5153218;27;20047;-64
2021/08/11 18:15:34;;;;;;;0.00;0.00;;;;;;;25.02;58.77;99737.38;5146864;27;20740;-63
2021/08/11 18:18:20;;;;;;;0.10;0.10;;;;;;;24.94;58.79;99719.56;5137749;27;20039;-63
2021/08/11 18:21:06;;;;;;;0.10;0.10;;;;;;;24.94;58.94;99745.44;5152966;27;20050;-60
2021/08/11 18:23:52;;;;;;;0.10;0.10;;;;;;;24.91;59.11;99729.78;5137284;27;20146;-61
2021/08/11 18:26:38;;;;;;;0.25;0.25;;;;;;;24.87;59.05;99724.81;5152869;27;20137;-62
2021/08/11 18:29:24;;;;;;;0.10;0.10;;;;;;;24.81;59.06;99714.81;5137421;27;20097;-61
2021/08/11 18:32:10;;;;;;;0.20;0.20;;;;;;;24.83;59.04;99718.19;5152770;27;20114;-61
2021/08/11 18:34:55;;;;;;;0.17;0.17;;;;;;;24.86;58.91;99727.66;5136999;27;20138;-61
2021/08/11 18:37:41;;;;;;;0.47;0.47;;;;;;;24.82;58.98;99734.38;5152754;27;20421;-64
2021/08/11 18:40:27;;;;;;;0.10;0.10;;;;;;;24.83;58.96;99738.72;5152670;27;20488;-66
2021/08/11 18:43:13;;;;;;;0.10;0.10;;;;;;;24.80;58.97;99715.81;5152433;27;20187;-64
2021/08/11 18:45:59;;;;;;;0.40;0.40;;;;;;;24.82;58.93;99716.50;5152240;27;20046;-64
2021/08/11 18:48:45;;;;;;;0.10;0.10;;;;;;;24.77;58.96;99712.69;5152348;27;20046;-64
2021/08/11 18:51:32;;;;;;;0.10;0.10;;;;;;;24.78;58.75;99704.47;5152513;27;20455;-63
2021/08/11 18:54:18;;;;;;;0.10;0.10;;;;;;;24.73;58.90;99690.84;5152155;27;20046;-66
2021/08/11 18:57:04;;;;;;;0.10;0.10;;;;;;;24.72;58.86;99689.16;5151837;27;20047;-65
2021/08/11 18:59:50;;;;;;;0.10;0.10;;;;;;;24.75;58.82;99688.81;5151735;27;20133;-60
2021/08/11 19:02:36;;;;;;;0.10;0.10;;;;;;;24.73;58.92;99688.19;5151942;27;20534;-64
2021/08/11 19:05:24;;;;;;;0.10;0.10;;;;;;;24.70;58.82;99701.88;5151816;27;20061;-64
2021/08/11 19:08:10;;;;;;;0.22;0.22;;;;;;;24.70;58.91;99701.88;5151722;27;20129;-62
2021/08/11 19:10:57;;;;;;;0.10;0.10;;;;;;;24.64;58.83;99691.09;5152526;27;20043;-66
2021/08/11 19:13:46;;;;;;;0.20;0.20;;;;;;;24.69;58.98;99692.19;5137201;27;20084;-64
2021/08/11 19:16:34;;;;;;;0.15;0.15;;;;;;;24.66;58.89;99692.56;5089064;27;20131;-61
2021/08/11 19:19:19;;;;;;;0.10;0.10;;;;;;;24.68;59.03;99693.19;5131402;27;20146;-64
2021/08/11 19:22:05;;;;;;;0.10;0.10;;;;;;;24.70;58.82;99687.69;5129967;27;20047;-66
2021/08/11 19:24:51;;;;;;;0.00;0.00;;;;;;;24.65;58.88;99682.88;5130605;27;20051;-65
2021/08/11 19:27:37;;;;;;;0.20;0.20;;;;;;;24.68;58.59;99687.03;5131428;27;20043;-62
2021/08/11 19:30:26;;;;;;;0.10;0.10;;;;;;;24.70;58.77;99688.53;5129862;27;20039;-64
2021/08/11 19:33:12;;;;;;;0.10;0.10;;;;;;;24.70;58.60;99685.88;5130675;27;20133;-67
2021/08/11 19:35:59;;;;;;;0.10;0.10;;;;;;;24.68;58.47;99677.19;5131291;27;20051;-62
2021/08/11 19:38:45;;;;;;;0.10;0.10;;;;;;;24.69;58.56;99678.00;5131121;27;20066;-62
2021/08/11 19:41:30;;;;;;;0.20;0.20;;;;;;;24.68;58.49;99669.16;5130509;27;20180;-63
2021/08/11 19:44:16;;;;;;;0.15;0.15;;;;;;;24.69;58.44;99673.50;5130899;27;20047;-66
2021/08/11 19:47:02;;;;;;;0.10;0.10;;;;;;;24.67;58.50;99666.69;5130790;27;20111;-65
2021/08/11 19:49:48;;;;;;;0.10;0.10;;;;;;;24.68;58.40;99665.66;5131292;27;20074;-64
2021/08/11 19:52:39;;;;;;;0.30;0.30;;;;;;;24.66;58.45;99663.19;5131278;27;20055;-65
2021/08/11 19:55:32;;;;;;;0.10;0.10;;;;;;;24.64;58.31;99665.19;5114810;27;20042;-65
2021/08/11 19:58:22;;;;;;;0.10;0.10;;;;;;;24.64;58.56;99659.84;5131120;27;20114;-65
2021/08/11 20:01:12;;;;;;;0.10;0.10;;;;;;;24.55;58.54;99639.56;5116015;27;20598;-67
2021/08/11 20:03:58;;;;;;;0.10;0.10;;;;;;;24.61;58.52;99646.84;5130593;27;20096;-66
2021/08/11 20:06:44;;;;;;;0.30;0.30;;;;;;;24.51;58.61;99635.59;5130887;27;20052;-65
2021/08/11 20:09:29;;;;;;;0.10;0.10;;;;;;;24.54;58.58;99640.56;5130674;27;20100;-65
2021/08/11 20:12:15;;;;;;;0.10;0.10;;;;;;;24.54;58.60;99645.91;5129347;28;20054;-64
2021/08/11 20:15:01;;;;;;;0.10;0.10;;;;;;;24.58;58.55;99647.22;5134135;27;20429;-64
2021/08/11 20:17:47;;;;;;;0.68;0.68;;;;;;;24.59;58.43;99640.88;5151343;27;20046;-64
2021/08/11 20:20:33;;;;;;;0.45;0.45;;;;;;;24.55;58.41;99639.56;5151203;27;20043;-65
2021/08/11 20:23:19;;;;;;;0.30;0.30;;;;;;;24.58;58.43;99633.03;5151079;27;20035;-66
2021/08/11 20:26:04;;;;;;;0.10;0.10;;;;;;;24.56;58.46;99635.91;5150858;27;20054;-66
2021/08/11 20:28:50;;;;;;;0.10;0.10;;;;;;;24.58;58.51;99633.03;5151113;27;20133;-65
2021/08/11 20:31:36;;;;;;;0.10;0.10;;;;;;;24.57;58.45;99637.56;5151056;27;20438;-64
2021/08/11 20:34:22;;;;;;;0.10;0.10;;;;;;;24.54;58.53;99629.88;5135520;27;20510;-64
2021/08/11 20:37:07;;;;;;;0.13;0.13;;;;;;;24.53;58.53;99625.56;5152245;27;20047;-65
2021/08/11 20:39:53;;;;;;;0.20;0.20;;;;;;;24.55;58.44;99636.91;5155014;27;20038;-65
2021/08/11 20:42:39;;;;;;;0.10;0.10;;;;;;;24.55;58.51;99638.72;5155169;27;20119;-64
2021/08/11 20:45:25;;;;;;;0.10;0.10;;;;;;;24.52;58.43;99637.25;5154807;27;20509;-66
2021/08/11 20:48:10;;;;;;;0.10;0.10;;;;;;;24.55;58.38;99631.56;5154641;27;20046;-65
2021/08/11 20:50:57;;;;;;;0.20;0.20;;;;;;;24.53;58.33;99609.56;5154752;27;20042;-66
2021/08/11 20:53:42;;;;;;;0.10;0.10;;;;;;;24.55;58.31;99617.38;5155042;27;20488;-66
2021/08/11 20:56:30;;;;;;;0.10;0.10;;;;;;;24.54;58.32;99618.41;5154985;27;20042;-65
2021/08/11 20:59:17;;;;;;;0.10;0.10;;;;;;;24.54;58.37;99613.88;5154368;27;20071;-65
2021/08/11 21:02:03;;;;;;;0.10;0.10;;;;;;;24.54;58.33;99611.19;5154581;27;20043;-65
2021/08/11 21:04:49;;;;;;;0.25;0.25;;;;;;;24.51;58.28;99600.06;5154705;27;20085;-65
2021/08/11 21:07:35;;;;;;;0.38;0.38;;;;;;;24.50;58.40;99587.72;5154691;27;20453;-65
2021/08/11 21:10:20;;;;;;;0.30;0.30;;;;;;;24.50;58.52;99599.25;5154157;27;20059;-66
2021/08/11 21:13:06;;;;;;;0.10;0.10;;;;;;;24.52;58.36;99607.06;5154182;27;20052;-66
2021/08/11 21:15:52;;;;;;;0.10;0.10;;;;;;;24.51;58.35;99611.56;5154360;27;20049;-64
2021/08/11 21:18:38;;;;;;;0.00;0.00;;;;;;;24.45;58.36;99601.59;5139055;27;20577;-65
2021/08/11 21:21:24;;;;;;;0.10;0.10;;;;;;;24.50;58.35;99611.75;5154394;27;20520;-64
2021/08/11 21:24:11;;;;;;;0.10;0.10;;;;;;;24.48;58.23;99595.91;5154019;27;20050;-64
2021/08/11 21:26:57;;;;;;;0.55;0.55;;;;;;;24.49;58.42;99613.59;5154030;27;20035;-66
2021/08/11 21:29:42;;;;;;;0.10;0.10;;;;;;;24.49;58.26;99607.41;5154145;27;20054;-65
2021/08/11 21:32:28;;;;;;;0.10;0.10;;;;;;;24.45;58.23;99595.44;5154192;27;20089;-65
2021/08/11 21:35:14;;;;;;;0.25;0.25;;;;;;;24.38;58.27;99588.16;5153740;27;20074;-65
2021/08/11 21:38:00;;;;;;;0.10;0.10;;;;;;;24.48;58.34;99605.75;5153900;27;20047;-65
2021/08/11 21:40:45;;;;;;;0.00;0.00;;;;;;;24.47;58.29;99609.44;5153939;27;20035;-64
2021/08/11 21:43:31;;;;;;;0.10;0.10;;;;;;;24.47;58.41;99604.94;5154052;27;20074;-64
2021/08/11 21:46:17;;;;;;;0.10;0.10;;;;;;;24.45;58.32;99596.25;5138052;27;20491;-64
2021/08/11 21:49:03;;;;;;;0.20;0.20;;;;;;;24.48;58.27;99592.41;5152338;27;20055;-65
2021/08/11 21:51:49;;;;;;;0.10;0.10;;;;;;;24.47;58.24;99582.75;5153884;27;20050;-65
2021/08/11 21:54:35;;;;;;;0.28;0.28;;;;;;;24.46;58.19;99589.94;5153674;27;20039;-64
2021/08/11 21:57:20;;;;;;;0.55;0.20;;;;;;;24.45;58.17;99598.94;5153435;27;20047;-63
2021/08/11 22:00:08;;;;;;;0.10;0.10;;;;;;;24.45;58.37;99601.59;5153217;27;20042;-63
2021/08/11 22:02:57;;;;;;;0.10;0.10;;;;;;;24.44;58.21;99599.97;5153668;27;20509;-64
2021/08/11 22:05:42;;;;;;;0.10;0.10;;;;;;;24.43;58.27;99584.94;5137903;27;20501;-64
2021/08/11 22:08:28;;;;;;;0.20;0.20;;;;;;;24.39;58.24;99580.97;5153330;27;20055;-63
2021/08/11 22:11:15;;;;;;;0.20;0.20;;;;;;;24.35;58.28;99582.34;5134268;27;20050;-63
2021/08/11 22:14:01;;;;;;;0.10;0.10;;;;;;;24.38;58.29;99591.84;5152805;27;20054;-64
2021/08/11 22:16:46;;;;;;;0.10;0.10;;;;;;;24.41;58.35;99599.50;5153124;27;20609;-63
2021/08/11 22:19:32;;;;;;;0.40;0.40;;;;;;;24.38;58.46;99581.16;5153087;27;20038;-64
2021/08/11 22:22:19;;;;;;;0.10;0.10;;;;;;;24.36;58.48;99578.66;5152780;27;20659;-65
2021/08/11 22:25:05;;;;;;;0.43;0.43;;;;;;;24.34;58.42;99572.69;5152677;27;20070;-65
2021/08/11 22:27:51;;;;;;;0.20;0.20;;;;;;;24.32;58.52;99564.00;5153152;27;20138;-65
2021/08/11 22:30:37;;;;;;;0.10;0.10;;;;;;;24.16;58.55;99540.13;5152762;27;20047;-65
2021/08/11 22:33:23;;;;;;;0.10;0.10;;;;;;;24.34;58.59;99572.69;5152565;27;20075;-65
2021/08/11 22:36:08;;;;;;;0.10;0.10;;;;;;;24.33;58.61;99571.00;5137008;27;20042;-65
2021/08/11 22:38:54;;;;;;;0.10;0.10;;;;;;;24.35;58.61;99571.66;5122898;27;20086;-65
2021/08/11 22:41:40;;;;;;;0.10;0.10;;;;;;;24.36;58.63;99562.66;5152823;27;20117;-65
2021/08/11 22:44:26;;;;;;;0.22;0.22;;;;;;;24.38;58.48;99560.63;5152448;27;20417;-65
2021/08/11 22:47:11;;;;;;;0.10;0.10;;;;;;;24.35;58.56;99555.63;5136892;27;20425;-65
2021/08/11 22:49:57;;;;;;;0.10;0.10;;;;;;;24.31;58.54;99541.81;5152429;27;20054;-64
2021/08/11 22:52:43;;;;;;;0.10;0.10;;;;;;;24.35;58.55;99550.31;5152696;27;20199;-64
2021/08/11 22:55:29;;;;;;;0.10;0.10;;;;;;;24.35;58.57;99551.13;5152372;27;20061;-64
2021/08/11 22:58:15;;;;;;;0.10;0.10;;;;;;;24.34;58.54;99546.00;5152040;27;20081;-64
2021/08/11 23:01:00;;;;;;;0.15;0.15;;;;;;;24.32;58.64;99538.16;5151997;27;20099;-64
2021/08/11 23:03:47;;;;;;;0.20;0.20;;;;;;;24.32;58.60;99538.16;5152157;27;20046;-64
2021/08/11 23:06:39;;;;;;;0.10;0.10;;;;;;;24.31;58.62;99530.34;5152261;27;20057;-64
2021/08/11 23:09:24;;;;;;;0.10;0.10;;;;;;;24.18;58.77;99498.91;5136467;27;20139;-64
2021/08/11 23:12:10;;;;;;;0.17;0.17;;;;;;;24.25;58.55;99525.69;5152116;27;20137;-65
2021/08/11 23:14:56;;;;;;;0.10;0.10;;;;;;;24.29;58.69;99517.16;5152001;27;20050;-65
2021/08/11 23:17:42;;;;;;;0.10;0.10;;;;;;;24.29;58.71;99511.00;5152159;27;20053;-64
2021/08/11 23:20:28;;;;;;;0.50;0.50;;;;;;;24.25;58.60;99499.00;5151863;27;20570;-65
2021/08/11 23:23:13;;;;;;;0.10;0.10;;;;;;;24.28;58.73;99504.00;5136253;27;20046;-65
2021/08/11 23:26:00;;;;;;;0.30;0.30;;;;;;;24.24;58.78;99505.38;5151778;27;20054;-65
2021/08/11 23:28:46;;;;;;;0.10;0.10;;;;;;;24.26;58.68;99482.84;5136407;27;20138;-65
2021/08/11 23:31:32;;;;;;;0.10;0.10;;;;;;;24.26;58.75;99490.00;5151897;27;20065;-65
2021/08/11 23:34:18;;;;;;;0.10;0.10;;;;;;;24.25;58.72;99488.34;5151416;27;20509;-65
2021/08/11 23:37:04;;;;;;;0.20;0.20;;;;;;;24.09;58.78;99470.59;5151729;27;20119;-64
2021/08/11 23:39:50;;;;;;;0.10;0.10;;;;;;;24.24;58.80;99502.72;5151699;27;20046;-65
2021/08/11 23:42:36;;;;;;;0.20;0.20;;;;;;;24.22;59.00;99500.22;5151705;27;20057;-65
2021/08/11 23:45:21;;;;;;;0.10;0.10;;;;;;;24.24;58.96;99500.03;5151148;27;20047;-65
2021/08/11 23:48:07;;;;;;;0.10;0.10;;;;;;;24.16;58.89;99494.75;5135953;27;20558;-65
2021/08/11 23:50:53;;;;;;;0.10;0.10;;;;;;;24.19;58.86;99483.72;5151319;27;20065;-64
2021/08/11 23:53:39;;;;;;;0.10;0.10;;;;;;;24.28;58.85;99499.50;5135923;27;20046;-64
2021/08/11 23:56:26;;;;;;;0.17;0.17;;;;;;;24.18;58.77;99488.22;5151149;27;20429;-65
2021/08/11 23:59:12;;;;;;;0.15;0.15;;;;;;;24.30;58.71;99491.31;5151066;27;20138;-65
